sensor_id;sensor_type;location;lat;lon;timestamp;P1;durP1;ratioP1;P2;durP2;ratioP2
80536;SDS011;69867;47.074;15.404;2023-07-02T00:01:38;5.47;;;2.35;;
80536;SDS011;69867;47.074;15.404;2023-07-02T00:04:03;4.72;;;2.25;;
80536;SDS011;69867;47.074;15.404;2023-07-02T00:06:28;5.15;;;2.33;;
80536;SDS011;69867;47.074;15.404;2023-07-02T00:08:54;5.60;;;2.42;;
80536;SDS011;69867;47.074;15.404;2023-07-02T00:11:19;6.40;;;2.47;;
80536;SDS011;69867;47.074;15.404;2023-07-02T00:13:44;5.50;;;2.25;;
80536;SDS011;69867;47.074;15.404;2023-07-02T00:16:10;5.78;;;2.40;;
80536;SDS011;69867;47.074;15.404;2023-07-02T00:18:35;6.78;;;2.40;;
80536;SDS011;69867;47.074;15.404;2023-07-02T00:21:00;8.20;;;2.35;;
80536;SDS011;69867;47.074;15.404;2023-07-02T00:23:26;6.43;;;2.60;;
80536;SDS011;69867;47.074;15.404;2023-07-02T00:25:52;9.75;;;2.92;;
80536;SDS011;69867;47.074;15.404;2023-07-02T00:28:17;5.13;;;2.80;;
80536;SDS011;69867;47.074;15.404;2023-07-02T00:30:42;7.05;;;2.92;;
80536;SDS011;69867;47.074;15.404;2023-07-02T00:33:08;6.47;;;2.47;;
80536;SDS011;69867;47.074;15.404;2023-07-02T00:35:33;5.95;;;2.55;;
80536;SDS011;69867;47.074;15.404;2023-07-02T00:37:58;9.90;;;2.80;;
80536;SDS011;69867;47.074;15.404;2023-07-02T00:40:24;6.20;;;2.60;;
80536;SDS011;69867;47.074;15.404;2023-07-02T00:42:51;8.77;;;2.83;;
80536;SDS011;69867;47.074;15.404;2023-07-02T00:45:16;8.73;;;3.50;;
80536;SDS011;69867;47.074;15.404;2023-07-02T00:47:42;8.32;;;2.75;;
80536;SDS011;69867;47.074;15.404;2023-07-02T00:50:07;9.60;;;2.97;;
80536;SDS011;69867;47.074;15.404;2023-07-02T00:52:33;6.55;;;2.80;;
80536;SDS011;69867;47.074;15.404;2023-07-02T00:54:59;6.80;;;3.03;;
80536;SDS011;69867;47.074;15.404;2023-07-02T00:57:24;7.70;;;2.78;;
80536;SDS011;69867;47.074;15.404;2023-07-02T00:59:49;6.90;;;2.70;;
80536;SDS011;69867;47.074;15.404;2023-07-02T01:02:15;7.53;;;3.00;;
80536;SDS011;69867;47.074;15.404;2023-07-02T01:04:40;7.20;;;2.85;;
80536;SDS011;69867;47.074;15.404;2023-07-02T01:07:05;6.85;;;2.65;;
80536;SDS011;69867;47.074;15.404;2023-07-02T01:09:31;9.68;;;2.97;;
80536;SDS011;69867;47.074;15.404;2023-07-02T01:11:57;7.07;;;3.30;;
80536;SDS011;69867;47.074;15.404;2023-07-02T01:14:26;5.95;;;2.55;;
80536;SDS011;69867;47.074;15.404;2023-07-02T01:16:54;6.57;;;3.05;;
80536;SDS011;69867;47.074;15.404;2023-07-02T01:19:41;6.03;;;3.28;;
80536;SDS011;69867;47.074;15.404;2023-07-02T01:22:08;6.28;;;2.83;;
80536;SDS011;69867;47.074;15.404;2023-07-02T01:24:35;6.63;;;2.85;;
80536;SDS011;69867;47.074;15.404;2023-07-02T01:27:01;7.28;;;3.03;;
80536;SDS011;69867;47.074;15.404;2023-07-02T01:29:28;8.48;;;3.17;;
80536;SDS011;69867;47.074;15.404;2023-07-02T01:31:54;5.15;;;2.97;;
80536;SDS011;69867;47.074;15.404;2023-07-02T01:34:20;6.63;;;2.88;;
80536;SDS011;69867;47.074;15.404;2023-07-02T01:36:45;8.02;;;3.15;;
80536;SDS011;69867;47.074;15.404;2023-07-02T01:39:10;10.88;;;3.75;;
80536;SDS011;69867;47.074;15.404;2023-07-02T01:41:49;8.23;;;2.88;;
80536;SDS011;69867;47.074;15.404;2023-07-02T01:44:16;9.25;;;3.28;;
80536;SDS011;69867;47.074;15.404;2023-07-02T01:46:41;6.22;;;3.00;;
80536;SDS011;69867;47.074;15.404;2023-07-02T01:49:07;7.25;;;3.03;;
80536;SDS011;69867;47.074;15.404;2023-07-02T01:51:33;6.70;;;3.15;;
80536;SDS011;69867;47.074;15.404;2023-07-02T01:53:59;7.00;;;3.10;;
80536;SDS011;69867;47.074;15.404;2023-07-02T01:56:24;6.70;;;2.95;;
80536;SDS011;69867;47.074;15.404;2023-07-02T01:58:50;6.95;;;3.05;;
80536;SDS011;69867;47.074;15.404;2023-07-02T02:01:15;7.68;;;3.22;;
80536;SDS011;69867;47.074;15.404;2023-07-02T02:03:40;7.97;;;3.53;;
80536;SDS011;69867;47.074;15.404;2023-07-02T02:06:06;8.55;;;3.67;;
80536;SDS011;69867;47.074;15.404;2023-07-02T02:08:31;8.10;;;3.42;;
80536;SDS011;69867;47.074;15.404;2023-07-02T02:10:56;8.48;;;3.50;;
80536;SDS011;69867;47.074;15.404;2023-07-02T02:13:22;8.07;;;3.83;;
80536;SDS011;69867;47.074;15.404;2023-07-02T02:15:47;10.25;;;4.22;;
80536;SDS011;69867;47.074;15.404;2023-07-02T02:18:12;7.13;;;3.55;;
80536;SDS011;69867;47.074;15.404;2023-07-02T02:20:38;7.50;;;4.30;;
80536;SDS011;69867;47.074;15.404;2023-07-02T02:23:03;6.82;;;4.05;;
80536;SDS011;69867;47.074;15.404;2023-07-02T02:25:29;8.70;;;4.35;;
80536;SDS011;69867;47.074;15.404;2023-07-02T02:27:54;7.38;;;3.17;;
80536;SDS011;69867;47.074;15.404;2023-07-02T02:30:19;6.28;;;3.85;;
80536;SDS011;69867;47.074;15.404;2023-07-02T02:32:45;7.50;;;3.70;;
80536;SDS011;69867;47.074;15.404;2023-07-02T02:35:10;9.52;;;4.00;;
80536;SDS011;69867;47.074;15.404;2023-07-02T02:37:36;5.72;;;3.47;;
80536;SDS011;69867;47.074;15.404;2023-07-02T02:40:03;7.57;;;4.07;;
80536;SDS011;69867;47.074;15.404;2023-07-02T02:42:28;8.30;;;3.85;;
80536;SDS011;69867;47.074;15.404;2023-07-02T02:44:54;6.88;;;3.50;;
80536;SDS011;69867;47.074;15.404;2023-07-02T02:47:19;8.40;;;3.63;;
80536;SDS011;69867;47.074;15.404;2023-07-02T02:49:44;7.45;;;3.90;;
80536;SDS011;69867;47.074;15.404;2023-07-02T02:52:10;7.55;;;3.80;;
80536;SDS011;69867;47.074;15.404;2023-07-02T02:54:35;8.50;;;3.85;;
80536;SDS011;69867;47.074;15.404;2023-07-02T02:57:00;6.30;;;3.65;;
80536;SDS011;69867;47.074;15.404;2023-07-02T02:59:26;9.02;;;3.90;;
80536;SDS011;69867;47.074;15.404;2023-07-02T03:01:51;6.88;;;3.63;;
80536;SDS011;69867;47.074;15.404;2023-07-02T03:04:16;7.60;;;4.00;;
80536;SDS011;69867;47.074;15.404;2023-07-02T03:06:42;8.73;;;3.65;;
80536;SDS011;69867;47.074;15.404;2023-07-02T03:09:07;8.57;;;3.72;;
80536;SDS011;69867;47.074;15.404;2023-07-02T03:11:32;8.88;;;3.85;;
80536;SDS011;69867;47.074;15.404;2023-07-02T03:13:58;8.05;;;3.80;;
80536;SDS011;69867;47.074;15.404;2023-07-02T03:16:23;8.52;;;4.13;;
80536;SDS011;69867;47.074;15.404;2023-07-02T03:18:48;6.22;;;4.05;;
80536;SDS011;69867;47.074;15.404;2023-07-02T03:21:14;7.63;;;3.88;;
80536;SDS011;69867;47.074;15.404;2023-07-02T03:23:39;8.45;;;3.88;;
80536;SDS011;69867;47.074;15.404;2023-07-02T03:26:04;9.10;;;4.05;;
80536;SDS011;69867;47.074;15.404;2023-07-02T03:28:29;10.55;;;4.00;;
80536;SDS011;69867;47.074;15.404;2023-07-02T03:30:55;9.15;;;3.95;;
80536;SDS011;69867;47.074;15.404;2023-07-02T03:33:20;7.93;;;3.92;;
80536;SDS011;69867;47.074;15.404;2023-07-02T03:35:45;8.82;;;3.63;;
80536;SDS011;69867;47.074;15.404;2023-07-02T03:38:11;11.75;;;4.03;;
80536;SDS011;69867;47.074;15.404;2023-07-02T03:40:36;6.07;;;3.67;;
80536;SDS011;69867;47.074;15.404;2023-07-02T03:43:01;7.70;;;3.60;;
80536;SDS011;69867;47.074;15.404;2023-07-02T03:45:27;7.22;;;3.25;;
80536;SDS011;69867;47.074;15.404;2023-07-02T03:47:52;10.38;;;3.95;;
80536;SDS011;69867;47.074;15.404;2023-07-02T03:50:17;8.80;;;3.75;;
80536;SDS011;69867;47.074;15.404;2023-07-02T03:52:43;10.02;;;3.58;;
80536;SDS011;69867;47.074;15.404;2023-07-02T03:55:08;8.35;;;3.70;;
80536;SDS011;69867;47.074;15.404;2023-07-02T03:57:34;10.60;;;3.70;;
80536;SDS011;69867;47.074;15.404;2023-07-02T03:59:59;8.43;;;3.83;;
80536;SDS011;69867;47.074;15.404;2023-07-02T04:02:24;7.40;;;3.78;;
80536;SDS011;69867;47.074;15.404;2023-07-02T04:04:50;10.45;;;4.13;;
80536;SDS011;69867;47.074;15.404;2023-07-02T04:07:15;8.82;;;4.32;;
80536;SDS011;69867;47.074;15.404;2023-07-02T04:09:40;9.75;;;3.78;;
80536;SDS011;69867;47.074;15.404;2023-07-02T04:12:06;5.00;;;2.85;;
80536;SDS011;69867;47.074;15.404;2023-07-02T04:14:32;6.32;;;3.45;;
80536;SDS011;69867;47.074;15.404;2023-07-02T04:16:57;7.07;;;3.53;;
80536;SDS011;69867;47.074;15.404;2023-07-02T04:19:22;8.20;;;4.03;;
80536;SDS011;69867;47.074;15.404;2023-07-02T04:21:48;5.88;;;3.97;;
80536;SDS011;69867;47.074;15.404;2023-07-02T04:24:13;7.40;;;4.47;;
80536;SDS011;69867;47.074;15.404;2023-07-02T04:26:39;8.75;;;4.22;;
80536;SDS011;69867;47.074;15.404;2023-07-02T04:29:04;8.07;;;3.45;;
80536;SDS011;69867;47.074;15.404;2023-07-02T04:31:29;6.95;;;3.92;;
80536;SDS011;69867;47.074;15.404;2023-07-02T04:33:55;7.93;;;3.92;;
80536;SDS011;69867;47.074;15.404;2023-07-02T04:36:20;9.63;;;4.28;;
80536;SDS011;69867;47.074;15.404;2023-07-02T04:38:45;10.27;;;4.20;;
80536;SDS011;69867;47.074;15.404;2023-07-02T04:41:11;10.85;;;3.95;;
80536;SDS011;69867;47.074;15.404;2023-07-02T04:43:36;7.68;;;3.80;;
80536;SDS011;69867;47.074;15.404;2023-07-02T04:46:02;7.28;;;3.90;;
80536;SDS011;69867;47.074;15.404;2023-07-02T04:48:27;10.25;;;4.05;;
80536;SDS011;69867;47.074;15.404;2023-07-02T04:50:53;10.50;;;3.97;;
80536;SDS011;69867;47.074;15.404;2023-07-02T04:53:18;7.03;;;4.38;;
80536;SDS011;69867;47.074;15.404;2023-07-02T04:55:43;7.57;;;3.33;;
80536;SDS011;69867;47.074;15.404;2023-07-02T04:58:09;11.68;;;4.00;;
80536;SDS011;69867;47.074;15.404;2023-07-02T05:00:34;9.00;;;3.58;;
80536;SDS011;69867;47.074;15.404;2023-07-02T05:03:00;7.32;;;3.80;;
80536;SDS011;69867;47.074;15.404;2023-07-02T05:05:25;8.25;;;3.92;;
80536;SDS011;69867;47.074;15.404;2023-07-02T05:07:51;8.65;;;3.90;;
80536;SDS011;69867;47.074;15.404;2023-07-02T05:10:16;12.60;;;4.10;;
80536;SDS011;69867;47.074;15.404;2023-07-02T05:12:41;9.32;;;4.00;;
80536;SDS011;69867;47.074;15.404;2023-07-02T05:15:07;11.38;;;5.30;;
80536;SDS011;69867;47.074;15.404;2023-07-02T05:17:32;7.15;;;4.03;;
80536;SDS011;69867;47.074;15.404;2023-07-02T05:19:58;8.98;;;3.90;;
80536;SDS011;69867;47.074;15.404;2023-07-02T05:22:23;7.30;;;3.80;;
80536;SDS011;69867;47.074;15.404;2023-07-02T05:24:48;9.02;;;3.90;;
80536;SDS011;69867;47.074;15.404;2023-07-02T05:27:14;7.85;;;4.05;;
80536;SDS011;69867;47.074;15.404;2023-07-02T05:29:39;6.65;;;3.92;;
80536;SDS011;69867;47.074;15.404;2023-07-02T05:32:04;7.38;;;3.67;;
80536;SDS011;69867;47.074;15.404;2023-07-02T05:34:30;9.48;;;3.65;;
80536;SDS011;69867;47.074;15.404;2023-07-02T05:36:55;7.65;;;3.83;;
80536;SDS011;69867;47.074;15.404;2023-07-02T05:39:20;7.95;;;4.50;;
80536;SDS011;69867;47.074;15.404;2023-07-02T05:41:46;12.02;;;4.15;;
80536;SDS011;69867;47.074;15.404;2023-07-02T05:44:11;7.90;;;4.30;;
80536;SDS011;69867;47.074;15.404;2023-07-02T05:46:36;7.43;;;3.58;;
80536;SDS011;69867;47.074;15.404;2023-07-02T05:49:02;8.68;;;3.97;;
80536;SDS011;69867;47.074;15.404;2023-07-02T05:51:27;7.38;;;4.43;;
80536;SDS011;69867;47.074;15.404;2023-07-02T05:53:52;9.93;;;4.10;;
80536;SDS011;69867;47.074;15.404;2023-07-02T05:56:18;11.32;;;3.88;;
80536;SDS011;69867;47.074;15.404;2023-07-02T05:58:44;11.88;;;4.38;;
80536;SDS011;69867;47.074;15.404;2023-07-02T06:01:10;9.60;;;3.58;;
80536;SDS011;69867;47.074;15.404;2023-07-02T06:03:35;10.35;;;3.95;;
80536;SDS011;69867;47.074;15.404;2023-07-02T06:06:01;10.60;;;4.03;;
80536;SDS011;69867;47.074;15.404;2023-07-02T06:08:26;13.00;;;4.05;;
80536;SDS011;69867;47.074;15.404;2023-07-02T06:10:52;13.75;;;4.72;;
80536;SDS011;69867;47.074;15.404;2023-07-02T06:13:17;10.93;;;3.80;;
80536;SDS011;69867;47.074;15.404;2023-07-02T06:15:43;6.60;;;4.28;;
80536;SDS011;69867;47.074;15.404;2023-07-02T06:18:09;7.50;;;4.65;;
80536;SDS011;69867;47.074;15.404;2023-07-02T06:20:34;9.57;;;5.28;;
80536;SDS011;69867;47.074;15.404;2023-07-02T06:22:59;10.45;;;4.78;;
80536;SDS011;69867;47.074;15.404;2023-07-02T06:25:25;10.00;;;4.30;;
80536;SDS011;69867;47.074;15.404;2023-07-02T06:27:51;11.65;;;4.40;;
80536;SDS011;69867;47.074;15.404;2023-07-02T06:30:16;9.38;;;4.35;;
80536;SDS011;69867;47.074;15.404;2023-07-02T06:32:41;13.55;;;5.00;;
80536;SDS011;69867;47.074;15.404;2023-07-02T06:35:07;13.55;;;4.72;;
80536;SDS011;69867;47.074;15.404;2023-07-02T06:37:32;12.30;;;4.68;;
80536;SDS011;69867;47.074;15.404;2023-07-02T06:39:58;8.57;;;4.05;;
80536;SDS011;69867;47.074;15.404;2023-07-02T06:42:24;10.90;;;4.93;;
80536;SDS011;69867;47.074;15.404;2023-07-02T06:44:50;9.13;;;4.22;;
80536;SDS011;69867;47.074;15.404;2023-07-02T06:47:15;7.50;;;4.55;;
80536;SDS011;69867;47.074;15.404;2023-07-02T06:49:41;8.40;;;4.25;;
80536;SDS011;69867;47.074;15.404;2023-07-02T06:52:06;9.20;;;4.68;;
80536;SDS011;69867;47.074;15.404;2023-07-02T06:54:31;8.07;;;4.40;;
80536;SDS011;69867;47.074;15.404;2023-07-02T06:56:57;9.43;;;4.60;;
80536;SDS011;69867;47.074;15.404;2023-07-02T06:59:22;8.20;;;4.18;;
80536;SDS011;69867;47.074;15.404;2023-07-02T07:01:48;8.85;;;4.60;;
80536;SDS011;69867;47.074;15.404;2023-07-02T07:04:14;7.20;;;3.90;;
80536;SDS011;69867;47.074;15.404;2023-07-02T07:06:40;8.60;;;4.60;;
80536;SDS011;69867;47.074;15.404;2023-07-02T07:09:05;7.32;;;3.88;;
80536;SDS011;69867;47.074;15.404;2023-07-02T07:11:30;5.95;;;3.38;;
80536;SDS011;69867;47.074;15.404;2023-07-02T07:13:56;5.25;;;3.22;;
80536;SDS011;69867;47.074;15.404;2023-07-02T07:16:21;5.45;;;3.15;;
80536;SDS011;69867;47.074;15.404;2023-07-02T07:18:46;6.15;;;2.95;;
80536;SDS011;69867;47.074;15.404;2023-07-02T07:21:12;8.98;;;3.78;;
80536;SDS011;69867;47.074;15.404;2023-07-02T07:23:38;4.72;;;2.78;;
80536;SDS011;69867;47.074;15.404;2023-07-02T07:26:04;5.63;;;3.47;;
80536;SDS011;69867;47.074;15.404;2023-07-02T07:28:29;9.35;;;3.35;;
80536;SDS011;69867;47.074;15.404;2023-07-02T07:30:54;6.13;;;3.25;;
80536;SDS011;69867;47.074;15.404;2023-07-02T07:33:20;10.00;;;3.55;;
80536;SDS011;69867;47.074;15.404;2023-07-02T07:35:45;6.45;;;3.05;;
80536;SDS011;69867;47.074;15.404;2023-07-02T07:38:12;7.95;;;3.35;;
80536;SDS011;69867;47.074;15.404;2023-07-02T07:40:38;5.82;;;3.00;;
80536;SDS011;69867;47.074;15.404;2023-07-02T07:43:03;7.18;;;3.08;;
80536;SDS011;69867;47.074;15.404;2023-07-02T07:45:29;6.85;;;3.25;;
80536;SDS011;69867;47.074;15.404;2023-07-02T07:47:54;6.70;;;3.17;;
80536;SDS011;69867;47.074;15.404;2023-07-02T07:50:19;6.90;;;3.13;;
80536;SDS011;69867;47.074;15.404;2023-07-02T07:52:45;7.97;;;3.20;;
80536;SDS011;69867;47.074;15.404;2023-07-02T07:55:10;8.55;;;4.40;;
80536;SDS011;69867;47.074;15.404;2023-07-02T07:57:36;8.10;;;3.10;;
80536;SDS011;69867;47.074;15.404;2023-07-02T08:00:02;8.90;;;3.88;;
80536;SDS011;69867;47.074;15.404;2023-07-02T08:02:28;6.72;;;2.60;;
80536;SDS011;69867;47.074;15.404;2023-07-02T08:04:54;5.70;;;2.53;;
80536;SDS011;69867;47.074;15.404;2023-07-02T08:07:19;2.97;;;1.60;;
80536;SDS011;69867;47.074;15.404;2023-07-02T08:09:44;3.65;;;2.00;;
80536;SDS011;69867;47.074;15.404;2023-07-02T08:12:10;3.53;;;1.88;;
80536;SDS011;69867;47.074;15.404;2023-07-02T08:14:35;6.63;;;2.55;;
80536;SDS011;69867;47.074;15.404;2023-07-02T08:17:00;4.78;;;1.85;;
80536;SDS011;69867;47.074;15.404;2023-07-02T08:19:26;3.28;;;1.73;;
80536;SDS011;69867;47.074;15.404;2023-07-02T08:21:51;4.82;;;1.77;;
80536;SDS011;69867;47.074;15.404;2023-07-02T08:24:16;5.25;;;1.90;;
80536;SDS011;69867;47.074;15.404;2023-07-02T08:26:42;4.47;;;2.05;;
80536;SDS011;69867;47.074;15.404;2023-07-02T08:29:07;4.00;;;2.00;;
80536;SDS011;69867;47.074;15.404;2023-07-02T08:31:32;5.47;;;1.77;;
80536;SDS011;69867;47.074;15.404;2023-07-02T08:33:58;4.30;;;1.65;;
80536;SDS011;69867;47.074;15.404;2023-07-02T08:36:23;3.88;;;1.65;;
80536;SDS011;69867;47.074;15.404;2023-07-02T08:38:48;3.40;;;1.30;;
80536;SDS011;69867;47.074;15.404;2023-07-02T08:41:14;2.25;;;0.80;;
80536;SDS011;69867;47.074;15.404;2023-07-02T08:43:39;2.47;;;1.13;;
80536;SDS011;69867;47.074;15.404;2023-07-02T08:46:05;3.40;;;1.45;;
80536;SDS011;69867;47.074;15.404;2023-07-02T08:48:31;3.83;;;1.40;;
80536;SDS011;69867;47.074;15.404;2023-07-02T08:50:56;3.85;;;1.30;;
80536;SDS011;69867;47.074;15.404;2023-07-02T08:53:21;2.35;;;1.20;;
80536;SDS011;69867;47.074;15.404;2023-07-02T08:55:47;4.38;;;2.22;;
80536;SDS011;69867;47.074;15.404;2023-07-02T08:58:14;2.95;;;1.35;;
80536;SDS011;69867;47.074;15.404;2023-07-02T09:00:39;6.15;;;1.90;;
80536;SDS011;69867;47.074;15.404;2023-07-02T09:03:14;3.17;;;1.50;;
80536;SDS011;69867;47.074;15.404;2023-07-02T09:05:52;3.20;;;1.50;;
80536;SDS011;69867;47.074;15.404;2023-07-02T09:08:24;2.70;;;1.40;;
80536;SDS011;69867;47.074;15.404;2023-07-02T09:10:52;2.88;;;1.25;;
80536;SDS011;69867;47.074;15.404;2023-07-02T09:13:17;3.10;;;1.30;;
80536;SDS011;69867;47.074;15.404;2023-07-02T09:15:42;3.90;;;1.50;;
80536;SDS011;69867;47.074;15.404;2023-07-02T09:18:41;5.15;;;2.35;;
80536;SDS011;69867;47.074;15.404;2023-07-02T09:21:00;2.78;;;1.30;;
80536;SDS011;69867;47.074;15.404;2023-07-02T09:23:33;3.92;;;1.48;;
80536;SDS011;69867;47.074;15.404;2023-07-02T09:25:59;3.80;;;1.60;;
80536;SDS011;69867;47.074;15.404;2023-07-02T09:28:25;3.97;;;1.95;;
80536;SDS011;69867;47.074;15.404;2023-07-02T09:30:51;4.68;;;1.50;;
80536;SDS011;69867;47.074;15.404;2023-07-02T09:33:17;3.08;;;1.67;;
80536;SDS011;69867;47.074;15.404;2023-07-02T09:35:43;3.08;;;1.33;;
80536;SDS011;69867;47.074;15.404;2023-07-02T09:38:08;3.25;;;1.42;;
80536;SDS011;69867;47.074;15.404;2023-07-02T09:40:34;3.90;;;1.60;;
80536;SDS011;69867;47.074;15.404;2023-07-02T09:43:02;3.85;;;1.55;;
80536;SDS011;69867;47.074;15.404;2023-07-02T09:45:28;3.33;;;1.30;;
80536;SDS011;69867;47.074;15.404;2023-07-02T09:47:53;2.50;;;1.30;;
80536;SDS011;69867;47.074;15.404;2023-07-02T09:50:22;3.17;;;1.55;;
80536;SDS011;69867;47.074;15.404;2023-07-02T09:52:48;4.43;;;1.75;;
80536;SDS011;69867;47.074;15.404;2023-07-02T09:55:14;2.65;;;1.17;;
80536;SDS011;69867;47.074;15.404;2023-07-02T09:57:39;4.07;;;1.75;;
80536;SDS011;69867;47.074;15.404;2023-07-02T10:00:08;5.70;;;1.73;;
80536;SDS011;69867;47.074;15.404;2023-07-02T10:02:34;3.40;;;1.50;;
80536;SDS011;69867;47.074;15.404;2023-07-02T10:04:59;4.85;;;1.58;;
80536;SDS011;69867;47.074;15.404;2023-07-02T10:07:25;3.05;;;1.45;;
80536;SDS011;69867;47.074;15.404;2023-07-02T10:09:56;4.10;;;1.92;;
80536;SDS011;69867;47.074;15.404;2023-07-02T10:12:22;4.65;;;1.90;;
80536;SDS011;69867;47.074;15.404;2023-07-02T10:14:49;3.35;;;1.75;;
80536;SDS011;69867;47.074;15.404;2023-07-02T10:17:53;5.68;;;2.00;;
80536;SDS011;69867;47.074;15.404;2023-07-02T10:20:19;3.58;;;1.67;;
80536;SDS011;69867;47.074;15.404;2023-07-02T10:22:55;5.22;;;1.88;;
80536;SDS011;69867;47.074;15.404;2023-07-02T10:25:31;9.57;;;2.67;;
80536;SDS011;69867;47.074;15.404;2023-07-02T10:27:57;5.35;;;1.92;;
80536;SDS011;69867;47.074;15.404;2023-07-02T10:30:33;4.18;;;1.90;;
80536;SDS011;69867;47.074;15.404;2023-07-02T10:33:07;4.38;;;1.95;;
80536;SDS011;69867;47.074;15.404;2023-07-02T10:35:39;6.80;;;3.22;;
80536;SDS011;69867;47.074;15.404;2023-07-02T10:38:06;6.28;;;3.33;;
80536;SDS011;69867;47.074;15.404;2023-07-02T10:40:31;4.28;;;1.90;;
80536;SDS011;69867;47.074;15.404;2023-07-02T10:42:57;4.22;;;2.22;;
80536;SDS011;69867;47.074;15.404;2023-07-02T10:45:30;4.55;;;2.50;;
80536;SDS011;69867;47.074;15.404;2023-07-02T10:47:56;5.20;;;2.55;;
80536;SDS011;69867;47.074;15.404;2023-07-02T10:50:22;3.45;;;1.80;;
80536;SDS011;69867;47.074;15.404;2023-07-02T10:52:47;3.80;;;2.08;;
80536;SDS011;69867;47.074;15.404;2023-07-02T10:55:17;4.18;;;2.25;;
80536;SDS011;69867;47.074;15.404;2023-07-02T10:57:43;6.88;;;2.40;;
80536;SDS011;69867;47.074;15.404;2023-07-02T11:00:08;5.38;;;2.75;;
80536;SDS011;69867;47.074;15.404;2023-07-02T11:02:37;5.80;;;2.58;;
80536;SDS011;69867;47.074;15.404;2023-07-02T11:05:04;5.47;;;2.30;;
80536;SDS011;69867;47.074;15.404;2023-07-02T11:07:30;4.90;;;3.38;;
80536;SDS011;69867;47.074;15.404;2023-07-02T11:09:55;5.93;;;3.47;;
80536;SDS011;69867;47.074;15.404;2023-07-02T11:12:27;4.80;;;2.58;;
80536;SDS011;69867;47.074;15.404;2023-07-02T11:14:53;4.15;;;1.90;;
80536;SDS011;69867;47.074;15.404;2023-07-02T11:17:24;3.60;;;1.85;;
80536;SDS011;69867;47.074;15.404;2023-07-02T11:19:50;4.75;;;2.30;;
80536;SDS011;69867;47.074;15.404;2023-07-02T11:22:16;3.80;;;1.65;;
80536;SDS011;69867;47.074;15.404;2023-07-02T11:24:41;4.95;;;2.60;;
80536;SDS011;69867;47.074;15.404;2023-07-02T11:27:07;4.00;;;2.00;;
80536;SDS011;69867;47.074;15.404;2023-07-02T11:29:33;4.95;;;1.88;;
80536;SDS011;69867;47.074;15.404;2023-07-02T11:32:11;3.33;;;1.85;;
80536;SDS011;69867;47.074;15.404;2023-07-02T11:34:37;4.00;;;1.80;;
80536;SDS011;69867;47.074;15.404;2023-07-02T11:37:03;3.72;;;1.90;;
80536;SDS011;69867;47.074;15.404;2023-07-02T11:39:29;6.20;;;2.80;;
80536;SDS011;69867;47.074;15.404;2023-07-02T11:41:55;4.13;;;2.20;;
80536;SDS011;69867;47.074;15.404;2023-07-02T11:44:20;4.65;;;2.75;;
80536;SDS011;69867;47.074;15.404;2023-07-02T11:46:46;3.67;;;2.00;;
80536;SDS011;69867;47.074;15.404;2023-07-02T11:49:12;4.70;;;2.22;;
80536;SDS011;69867;47.074;15.404;2023-07-02T11:51:40;3.75;;;1.98;;
80536;SDS011;69867;47.074;15.404;2023-07-02T11:54:07;4.65;;;2.20;;
80536;SDS011;69867;47.074;15.404;2023-07-02T11:56:32;4.28;;;2.33;;
80536;SDS011;69867;47.074;15.404;2023-07-02T11:58:58;3.83;;;2.00;;
80536;SDS011;69867;47.074;15.404;2023-07-02T12:01:24;5.93;;;2.50;;
80536;SDS011;69867;47.074;15.404;2023-07-02T12:03:50;6.15;;;3.08;;
80536;SDS011;69867;47.074;15.404;2023-07-02T12:06:15;6.13;;;2.67;;
80536;SDS011;69867;47.074;15.404;2023-07-02T12:08:40;7.45;;;3.20;;
80536;SDS011;69867;47.074;15.404;2023-07-02T12:11:06;4.72;;;2.10;;
80536;SDS011;69867;47.074;15.404;2023-07-02T12:13:32;5.18;;;2.67;;
80536;SDS011;69867;47.074;15.404;2023-07-02T12:15:57;5.82;;;2.72;;
80536;SDS011;69867;47.074;15.404;2023-07-02T12:18:22;8.30;;;2.95;;
80536;SDS011;69867;47.074;15.404;2023-07-02T12:20:48;6.53;;;2.08;;
80536;SDS011;69867;47.074;15.404;2023-07-02T12:23:13;2.72;;;1.20;;
80536;SDS011;69867;47.074;15.404;2023-07-02T12:25:38;2.75;;;1.10;;
80536;SDS011;69867;47.074;15.404;2023-07-02T12:28:04;3.97;;;1.00;;
80536;SDS011;69867;47.074;15.404;2023-07-02T12:30:30;3.22;;;1.10;;
80536;SDS011;69867;47.074;15.404;2023-07-02T12:32:55;2.58;;;0.90;;
80536;SDS011;69867;47.074;15.404;2023-07-02T12:35:22;3.08;;;1.10;;
80536;SDS011;69867;47.074;15.404;2023-07-02T12:37:49;2.42;;;1.05;;
80536;SDS011;69867;47.074;15.404;2023-07-02T12:40:15;3.78;;;1.23;;
80536;SDS011;69867;47.074;15.404;2023-07-02T12:42:41;3.15;;;0.90;;
80536;SDS011;69867;47.074;15.404;2023-07-02T12:45:08;2.85;;;0.88;;
80536;SDS011;69867;47.074;15.404;2023-07-02T12:47:34;2.40;;;1.13;;
80536;SDS011;69867;47.074;15.404;2023-07-02T12:50:00;3.13;;;1.10;;
80536;SDS011;69867;47.074;15.404;2023-07-02T12:52:27;2.00;;;0.90;;
80536;SDS011;69867;47.074;15.404;2023-07-02T12:54:53;2.40;;;1.20;;
80536;SDS011;69867;47.074;15.404;2023-07-02T12:57:19;2.55;;;0.90;;
80536;SDS011;69867;47.074;15.404;2023-07-02T12:59:44;3.13;;;1.00;;
80536;SDS011;69867;47.074;15.404;2023-07-02T13:02:12;3.53;;;1.15;;
80536;SDS011;69867;47.074;15.404;2023-07-02T13:04:38;2.50;;;1.10;;
80536;SDS011;69867;47.074;15.404;2023-07-02T13:07:04;2.55;;;0.82;;
80536;SDS011;69867;47.074;15.404;2023-07-02T13:09:29;3.08;;;1.10;;
80536;SDS011;69867;47.074;15.404;2023-07-02T13:11:55;3.72;;;1.30;;
80536;SDS011;69867;47.074;15.404;2023-07-02T13:14:20;4.72;;;1.55;;
80536;SDS011;69867;47.074;15.404;2023-07-02T13:16:45;4.32;;;1.48;;
80536;SDS011;69867;47.074;15.404;2023-07-02T13:19:11;6.32;;;1.55;;
80536;SDS011;69867;47.074;15.404;2023-07-02T13:21:36;3.33;;;1.45;;
80536;SDS011;69867;47.074;15.404;2023-07-02T13:24:02;4.05;;;2.15;;
80536;SDS011;69867;47.074;15.404;2023-07-02T13:26:27;4.90;;;2.53;;
80536;SDS011;69867;47.074;15.404;2023-07-02T13:28:53;4.72;;;1.67;;
80536;SDS011;69867;47.074;15.404;2023-07-02T13:31:18;3.78;;;1.40;;
80536;SDS011;69867;47.074;15.404;2023-07-02T13:33:44;8.15;;;4.35;;
80536;SDS011;69867;47.074;15.404;2023-07-02T13:36:09;12.05;;;6.15;;
80536;SDS011;69867;47.074;15.404;2023-07-02T13:38:38;5.15;;;2.40;;
80536;SDS011;69867;47.074;15.404;2023-07-02T13:41:03;4.65;;;1.75;;
80536;SDS011;69867;47.074;15.404;2023-07-02T13:43:29;7.50;;;2.60;;
80536;SDS011;69867;47.074;15.404;2023-07-02T13:45:54;2.90;;;1.45;;
80536;SDS011;69867;47.074;15.404;2023-07-02T13:48:20;5.68;;;2.35;;
80536;SDS011;69867;47.074;15.404;2023-07-02T13:50:45;3.80;;;2.00;;
80536;SDS011;69867;47.074;15.404;2023-07-02T13:53:10;4.35;;;2.10;;
80536;SDS011;69867;47.074;15.404;2023-07-02T13:55:36;6.30;;;3.25;;
80536;SDS011;69867;47.074;15.404;2023-07-02T13:58:01;4.65;;;2.22;;
80536;SDS011;69867;47.074;15.404;2023-07-02T14:00:27;3.92;;;2.13;;
80536;SDS011;69867;47.074;15.404;2023-07-02T14:02:53;5.07;;;2.00;;
80536;SDS011;69867;47.074;15.404;2023-07-02T14:05:18;6.20;;;2.53;;
80536;SDS011;69867;47.074;15.404;2023-07-02T14:07:44;7.20;;;3.22;;
80536;SDS011;69867;47.074;15.404;2023-07-02T14:10:10;6.65;;;2.65;;
80536;SDS011;69867;47.074;15.404;2023-07-02T14:12:35;7.95;;;2.85;;
80536;SDS011;69867;47.074;15.404;2023-07-02T14:15:01;4.57;;;2.58;;
80536;SDS011;69867;47.074;15.404;2023-07-02T14:17:26;5.07;;;3.15;;
80536;SDS011;69867;47.074;15.404;2023-07-02T14:19:51;5.75;;;3.00;;
80536;SDS011;69867;47.074;15.404;2023-07-02T14:22:17;5.15;;;2.72;;
80536;SDS011;69867;47.074;15.404;2023-07-02T14:24:42;7.85;;;3.22;;
80536;SDS011;69867;47.074;15.404;2023-07-02T14:27:07;10.82;;;3.58;;